createdAt,value
2018-03-29T00:01:11.089Z,5.70
2018-03-29T00:03:38.970Z,4.67
2018-03-29T00:06:07.595Z,4.97
2018-03-29T00:08:35.093Z,7.33
2018-03-29T00:11:03.097Z,7.03
2018-03-29T00:13:30.621Z,11.80
2018-03-29T00:15:58.310Z,8.90
2018-03-29T00:18:25.784Z,9.37
2018-03-29T00:20:53.352Z,6.63
2018-03-29T00:23:21.174Z,7.93
2018-03-29T00:25:48.725Z,6.13
2018-03-29T00:28:16.496Z,4.10
2018-03-29T00:30:43.977Z,44.47
2018-03-29T00:33:13.018Z,36.77
2018-03-29T00:35:40.937Z,17.30
2018-03-29T00:38:08.463Z,4.57
2018-03-29T00:40:36.783Z,6.40
2018-03-29T00:43:05.166Z,3.33
2018-03-29T00:45:32.923Z,6.50
2018-03-29T00:48:00.492Z,5.10
2018-03-29T00:50:28.061Z,4.03
2018-03-29T00:52:55.528Z,6.70
2018-03-29T00:55:23.125Z,5.17
2018-03-29T00:57:51.156Z,7.07
2018-03-29T01:00:19.218Z,6.17
2018-03-29T01:02:47.466Z,5.43
2018-03-29T01:05:16.050Z,3.77
2018-03-29T01:07:44.404Z,5.37
2018-03-29T01:10:11.866Z,5.33
2018-03-29T01:12:39.697Z,5.50
2018-03-29T01:15:07.266Z,5.67
2018-03-29T01:17:35.501Z,6.80
2018-03-29T01:20:02.996Z,5.40
2018-03-29T01:22:31.888Z,8.23
2018-03-29T01:25:01.325Z,5.60
2018-03-29T01:27:28.925Z,6.40
2018-03-29T01:29:56.609Z,9.20
2018-03-29T01:32:36.933Z,6.73
2018-03-29T01:35:05.228Z,5.63
2018-03-29T01:37:32.833Z,8.20
2018-03-29T01:40:00.783Z,7.27
2018-03-29T01:42:29.092Z,8.87
2018-03-29T01:44:58.030Z,8.33
2018-03-29T01:47:27.081Z,6.77
2018-03-29T01:49:55.749Z,9.17
2018-03-29T01:52:23.992Z,11.33
2018-03-29T01:54:51.537Z,12.30
2018-03-29T01:57:21.023Z,11.73
2018-03-29T01:59:48.509Z,10.77
2018-03-29T02:02:16.270Z,9.00
2018-03-29T02:04:44.191Z,12.77
2018-03-29T02:07:12.701Z,9.40
2018-03-29T02:09:40.545Z,9.00
2018-03-29T02:12:09.099Z,11.00
2018-03-29T02:14:36.614Z,11.27
2018-03-29T02:17:04.078Z,11.50
2018-03-29T02:19:31.549Z,12.90
2018-03-29T02:21:59.901Z,13.20
2018-03-29T02:24:27.576Z,13.33
2018-03-29T02:26:55.871Z,13.13
2018-03-29T02:29:23.345Z,8.90
2018-03-29T02:31:51.622Z,13.10
2018-03-29T02:34:19.111Z,14.40
2018-03-29T02:36:47.035Z,8.97
2018-03-29T02:39:15.092Z,15.13
2018-03-29T02:41:42.557Z,13.03
2018-03-29T02:44:10.303Z,10.90
2018-03-29T02:46:37.775Z,7.70
2018-03-29T02:49:05.269Z,9.60
2018-03-29T02:51:33.881Z,10.37
2018-03-29T02:54:02.097Z,15.60
2018-03-29T02:56:29.613Z,14.03
2018-03-29T02:58:57.647Z,11.87
2018-03-29T03:01:26.305Z,11.77
2018-03-29T03:03:53.779Z,10.70
2018-03-29T03:06:21.752Z,10.70
2018-03-29T03:08:49.218Z,11.30
2018-03-29T03:11:17.947Z,9.37
2018-03-29T03:13:45.403Z,9.07
2018-03-29T03:16:12.896Z,12.97
2018-03-29T03:18:40.373Z,12.80
2018-03-29T03:21:08.604Z,12.83
2018-03-29T03:23:36.069Z,12.43
2018-03-29T03:26:03.605Z,13.33
2018-03-29T03:28:31.072Z,8.97
2018-03-29T03:30:58.592Z,11.03
2018-03-29T03:33:26.733Z,9.63
2018-03-29T03:35:54.658Z,10.63
2018-03-29T03:38:22.113Z,11.53
2018-03-29T03:40:50.101Z,7.90
2018-03-29T03:43:18.044Z,12.53
2018-03-29T03:45:45.529Z,14.63
2018-03-29T03:48:12.965Z,12.60
2018-03-29T03:50:40.450Z,13.90
2018-03-29T03:53:07.913Z,13.67
2018-03-29T03:55:35.385Z,11.93
2018-03-29T03:58:04.222Z,13.43
2018-03-29T04:00:32.229Z,14.17
2018-03-29T04:02:59.702Z,15.03
2018-03-29T04:05:27.461Z,10.23
2018-03-29T04:07:55.711Z,11.00
2018-03-29T04:10:23.880Z,10.17
2018-03-29T04:12:51.371Z,10.93
2018-03-29T04:15:19.221Z,12.10
2018-03-29T04:17:46.677Z,13.10
2018-03-29T04:20:14.125Z,14.07
2018-03-29T04:22:41.601Z,12.67
2018-03-29T04:25:09.042Z,13.33
2018-03-29T04:27:36.509Z,12.77
2018-03-29T04:30:03.948Z,14.10
2018-03-29T04:32:31.608Z,12.67
2018-03-29T04:34:59.811Z,13.03
2018-03-29T04:37:28.461Z,13.40
2018-03-29T04:39:55.993Z,12.93
2018-03-29T04:42:23.449Z,15.10
2018-03-29T04:44:51.410Z,11.07
2018-03-29T04:47:18.841Z,13.00
2018-03-29T04:49:47.098Z,16.37
2018-03-29T04:52:14.538Z,11.90
2018-03-29T04:54:42.316Z,18.93
2018-03-29T04:57:09.763Z,12.70
2018-03-29T04:59:37.420Z,15.27
2018-03-29T05:02:04.846Z,15.93
2018-03-29T05:04:33.069Z,17.03
2018-03-29T05:07:01.844Z,15.90
2018-03-29T05:09:29.929Z,12.20
2018-03-29T05:11:57.257Z,14.77
2018-03-29T05:14:24.732Z,14.53
2018-03-29T05:16:52.179Z,18.47
2018-03-29T05:19:19.633Z,17.60
2018-03-29T05:21:47.077Z,13.60
2018-03-29T05:24:14.956Z,15.83
2018-03-29T05:26:42.426Z,18.50
2018-03-29T05:29:10.156Z,15.07
2018-03-29T05:31:37.600Z,18.67
2018-03-29T05:34:05.054Z,22.30
2018-03-29T05:36:32.972Z,13.70
2018-03-29T05:39:00.860Z,19.20
2018-03-29T05:41:28.301Z,18.03
2018-03-29T05:43:56.888Z,17.87
2018-03-29T05:46:25.126Z,15.57
2018-03-29T05:48:53.063Z,20.57
2018-03-29T05:51:20.504Z,19.57
2018-03-29T05:53:47.976Z,21.60
2018-03-29T05:56:15.420Z,22.00
2018-03-29T05:58:43.427Z,25.57
2018-03-29T06:01:11.093Z,29.33
2018-03-29T06:03:38.541Z,25.67
2018-03-29T06:06:06.373Z,29.80
2018-03-29T06:08:34.918Z,32.90
2018-03-29T06:11:02.713Z,26.40
2018-03-29T06:13:30.084Z,28.17
2018-03-29T06:16:03.904Z,30.40
2018-03-29T06:18:32.302Z,35.80
2018-03-29T06:20:59.768Z,34.17
2018-03-29T06:23:27.225Z,30.00
2018-03-29T06:25:54.712Z,32.30
2018-03-29T06:28:22.940Z,35.70
2018-03-29T06:30:50.441Z,36.93
2018-03-29T06:33:18.655Z,40.10
2018-03-29T06:35:46.452Z,35.40
2018-03-29T06:38:13.919Z,33.57
2018-03-29T06:40:41.341Z,34.97
2018-03-29T06:43:09.152Z,33.07
2018-03-29T06:45:37.697Z,34.00
2018-03-29T06:48:05.181Z,37.13
2018-03-29T06:50:32.645Z,36.30
2018-03-29T06:53:01.831Z,37.30
2018-03-29T06:55:29.279Z,37.00
2018-03-29T06:57:56.796Z,34.00
2018-03-29T07:00:24.242Z,36.20
2018-03-29T07:02:51.750Z,35.87
2018-03-29T07:05:19.618Z,42.70
2018-03-29T07:07:47.417Z,38.13
2018-03-29T07:10:15.630Z,35.47
2018-03-29T07:12:43.424Z,43.23
2018-03-29T07:15:11.172Z,38.57
2018-03-29T07:17:39.317Z,34.10
2018-03-29T07:20:06.951Z,34.93
2018-03-29T07:22:35.194Z,40.70
2018-03-29T07:25:02.669Z,39.93
2018-03-29T07:27:30.904Z,39.17
2018-03-29T07:29:58.370Z,45.80
2018-03-29T07:32:26.372Z,38.93
2018-03-29T07:34:55.048Z,41.80
2018-03-29T07:37:24.735Z,39.23
2018-03-29T07:39:52.230Z,39.93
2018-03-29T07:42:20.430Z,38.77
2018-03-29T07:44:48.402Z,46.60
2018-03-29T07:47:15.845Z,40.53
2018-03-29T07:49:43.369Z,37.33
2018-03-29T07:52:11.615Z,41.53
2018-03-29T07:54:39.050Z,36.70
2018-03-29T07:57:06.534Z,38.53
2018-03-29T07:59:34.948Z,39.23
2018-03-29T08:02:03.295Z,43.40
2018-03-29T08:04:30.761Z,40.47
2018-03-29T08:06:58.606Z,39.47
2018-03-29T08:09:26.584Z,41.43
2018-03-29T08:11:54.604Z,33.23
2018-03-29T08:14:22.081Z,37.53
2018-03-29T08:16:49.544Z,36.33
2018-03-29T08:19:17.010Z,37.90
2018-03-29T08:21:44.466Z,34.37
2018-03-29T08:24:12.549Z,40.17
2018-03-29T08:26:40.076Z,36.63
2018-03-29T08:29:07.548Z,42.00
2018-03-29T08:31:34.992Z,36.20
2018-03-29T08:34:02.444Z,28.10
2018-03-29T08:36:30.349Z,34.60
2018-03-29T08:38:58.556Z,37.33
2018-03-29T08:41:26.050Z,35.30
2018-03-29T08:43:54.657Z,34.37
2018-03-29T08:46:22.098Z,36.93
2018-03-29T08:48:49.643Z,29.27
2018-03-29T08:51:17.095Z,35.43
2018-03-29T08:53:44.596Z,33.80
2018-03-29T08:56:12.110Z,38.37
2018-03-29T08:58:39.590Z,35.10
2018-03-29T09:01:07.028Z,34.37
2018-03-29T09:03:35.033Z,39.33
2018-03-29T09:06:03.710Z,37.10
2018-03-29T09:08:31.791Z,42.13
2018-03-29T09:10:59.652Z,43.33
2018-03-29T09:13:27.729Z,29.07
2018-03-29T09:15:55.242Z,41.10
2018-03-29T09:18:22.803Z,31.67
2018-03-29T09:20:50.267Z,35.27
2018-03-29T09:23:17.719Z,37.90
2018-03-29T09:25:45.187Z,35.43
2018-03-29T09:35:00.136Z,36.07
2018-03-29T09:37:27.928Z,33.70
2018-03-29T09:39:56.357Z,38.50
2018-03-29T09:42:23.804Z,32.20
2018-03-29T09:44:51.894Z,39.30
2018-03-29T09:47:19.338Z,36.00
2018-03-29T09:49:46.816Z,40.27
2018-03-29T09:52:14.321Z,36.33
2018-03-29T09:54:41.797Z,35.37
2018-03-29T09:57:09.277Z,38.37
2018-03-29T09:59:36.794Z,35.10
2018-03-29T10:02:10.017Z,39.43
2018-03-29T10:04:37.880Z,39.53
2018-03-29T10:07:11.307Z,34.53
2018-03-29T10:09:39.973Z,39.07
2018-03-29T10:12:07.840Z,41.33
2018-03-29T10:14:35.388Z,36.17
2018-03-29T10:17:02.954Z,40.20
2018-03-29T10:19:30.423Z,35.63
2018-03-29T10:22:00.356Z,36.63
2018-03-29T10:24:28.617Z,41.23
2018-03-29T10:26:57.278Z,38.57
2018-03-29T10:29:24.729Z,36.60
2018-03-29T10:31:53.662Z,39.87
2018-03-29T10:34:21.868Z,38.33
2018-03-29T10:36:49.886Z,37.03
2018-03-29T10:39:18.101Z,37.40
2018-03-29T10:41:45.605Z,37.97
2018-03-29T10:44:13.472Z,37.97
2018-03-29T10:46:41.392Z,36.70
2018-03-29T10:49:08.836Z,39.20
2018-03-29T10:51:36.743Z,32.93
2018-03-29T10:54:04.229Z,34.10
2018-03-29T10:56:31.688Z,37.63
2018-03-29T10:58:59.148Z,35.90
2018-03-29T11:01:26.607Z,38.53
2018-03-29T11:03:54.077Z,39.13
2018-03-29T11:06:22.887Z,38.30
2018-03-29T11:08:50.899Z,37.83
2018-03-29T11:11:18.814Z,39.77
2018-03-29T11:13:47.048Z,38.17
2018-03-29T11:16:14.498Z,38.60
2018-03-29T11:18:41.972Z,35.67
2018-03-29T11:21:09.478Z,36.03
2018-03-29T11:23:37.102Z,35.67
2018-03-29T11:26:04.550Z,46.43
2018-03-29T11:28:32.057Z,30.90
2018-03-29T11:30:59.496Z,34.73
2018-03-29T11:33:27.106Z,33.40
2018-03-29T11:35:55.068Z,33.10
2018-03-29T11:38:22.580Z,30.13
2018-03-29T11:40:50.014Z,38.93
2018-03-29T11:43:18.826Z,32.10
2018-03-29T11:45:46.874Z,31.10
2018-03-29T11:48:15.141Z,33.20
2018-03-29T11:50:42.643Z,31.13
2018-03-29T11:53:10.203Z,35.37
2018-03-29T11:55:37.762Z,34.17
2018-03-29T11:58:05.206Z,33.67
2018-03-29T12:00:32.916Z,35.40
2018-03-29T12:03:00.356Z,28.73
2018-03-29T12:05:28.141Z,31.30
2018-03-29T12:07:57.094Z,27.77
2018-03-29T12:10:25.014Z,35.67
2018-03-29T12:12:52.466Z,32.07
2018-03-29T12:15:19.943Z,34.23
2018-03-29T12:17:48.157Z,32.20
2018-03-29T12:20:16.402Z,33.60
2018-03-29T12:22:44.615Z,29.60
2018-03-29T12:25:12.321Z,26.63
2018-03-29T12:27:40.547Z,23.00
2018-03-29T12:30:08.333Z,28.73
2018-03-29T12:32:36.413Z,22.40
2018-03-29T12:35:04.383Z,19.43
2018-03-29T12:37:31.841Z,23.13
2018-03-29T12:39:59.623Z,23.70
2018-03-29T12:42:27.864Z,21.87
2018-03-29T12:44:55.563Z,19.70
2018-03-29T12:47:23.076Z,22.90
2018-03-29T12:49:50.537Z,82.33
2018-03-29T12:52:18.094Z,28.43
2018-03-29T12:54:57.326Z,23.63
2018-03-29T12:57:36.980Z,20.23
2018-03-29T13:00:04.443Z,20.43
2018-03-29T13:02:32.857Z,20.00
2018-03-29T13:05:02.181Z,25.77
2018-03-29T13:07:30.060Z,21.40
2018-03-29T13:09:57.810Z,18.80
2018-03-29T13:12:25.665Z,21.20
2018-03-29T13:14:53.107Z,20.17
2018-03-29T13:17:20.584Z,19.23
2018-03-29T13:19:48.048Z,18.10
2018-03-29T13:22:15.620Z,19.80
2018-03-29T13:24:43.084Z,22.37
2018-03-29T13:27:10.591Z,22.97
2018-03-29T13:29:38.309Z,13.03
2018-03-29T13:32:05.764Z,12.67
2018-03-29T13:34:33.214Z,11.13
2018-03-29T13:37:00.885Z,12.50
2018-03-29T13:39:28.333Z,13.57
2018-03-29T13:41:56.015Z,12.20
2018-03-29T13:44:24.011Z,13.27
2018-03-29T13:46:52.249Z,17.77
2018-03-29T13:49:19.687Z,16.50
2018-03-29T13:51:47.166Z,16.43
2018-03-29T13:54:14.664Z,15.10
2018-03-29T13:56:42.108Z,12.03
2018-03-29T13:59:09.617Z,10.60
2018-03-29T14:01:37.141Z,10.37
2018-03-29T14:04:04.618Z,9.23
2018-03-29T14:06:32.469Z,10.23
2018-03-29T14:08:59.979Z,8.23
2018-03-29T14:11:27.801Z,7.40
2018-03-29T14:13:55.282Z,6.87
2018-03-29T14:16:22.724Z,7.17
2018-03-29T14:18:50.648Z,8.83
2018-03-29T14:21:19.097Z,9.67
2018-03-29T14:23:46.725Z,7.63
2018-03-29T14:26:14.262Z,9.80
2018-03-29T14:28:42.076Z,9.13
2018-03-29T14:31:09.535Z,9.40
2018-03-29T14:33:36.978Z,10.67
2018-03-29T14:36:04.930Z,15.87
2018-03-29T14:38:32.387Z,12.97
2018-03-29T14:40:59.863Z,14.00
2018-03-29T14:43:27.716Z,13.40
2018-03-29T14:45:55.270Z,11.47
2018-03-29T14:48:22.713Z,10.20
2018-03-29T14:50:50.528Z,13.93
2018-03-29T14:53:18.046Z,12.87
2018-03-29T14:55:45.613Z,16.23
2018-03-29T14:58:13.164Z,12.93
2018-03-29T15:00:40.777Z,11.80
2018-03-29T15:03:08.225Z,10.80
2018-03-29T15:05:35.985Z,5.43
2018-03-29T15:08:03.875Z,5.30
2018-03-29T15:10:31.722Z,4.40
2018-03-29T15:12:59.169Z,5.07
2018-03-29T15:15:26.652Z,5.50
2018-03-29T15:17:54.864Z,6.10
2018-03-29T15:20:22.344Z,4.47
2018-03-29T15:22:49.788Z,6.27
2018-03-29T15:25:17.269Z,7.97
2018-03-29T15:27:44.905Z,7.10
2018-03-29T15:30:12.342Z,7.50
2018-03-29T15:32:39.898Z,7.53
2018-03-29T15:35:08.289Z,7.47
2018-03-29T15:37:35.746Z,8.17
2018-03-29T15:40:03.306Z,6.87
2018-03-29T15:42:30.897Z,6.47
2018-03-29T15:44:58.881Z,6.73
2018-03-29T15:47:26.344Z,8.57
2018-03-29T15:49:55.210Z,8.03
2018-03-29T15:52:22.839Z,7.17
2018-03-29T15:54:50.294Z,7.07
2018-03-29T15:57:17.868Z,7.50
2018-03-29T15:59:46.032Z,7.20
2018-03-29T16:02:13.540Z,8.03
2018-03-29T16:04:41.592Z,6.97
2018-03-29T16:07:09.529Z,6.00
2018-03-29T16:09:36.982Z,6.77
2018-03-29T16:12:04.769Z,7.30
2018-03-29T16:14:32.237Z,9.67
2018-03-29T16:16:59.676Z,7.57
2018-03-29T16:19:27.344Z,10.23
2018-03-29T16:21:54.796Z,12.97
2018-03-29T16:24:22.273Z,7.43
2018-03-29T16:26:49.720Z,7.47
2018-03-29T16:29:17.220Z,10.67
2018-03-29T16:31:44.835Z,9.87
2018-03-29T16:34:12.334Z,10.07
2018-03-29T16:36:40.984Z,7.30
2018-03-29T16:39:08.461Z,10.00
2018-03-29T16:41:36.692Z,9.60
2018-03-29T16:44:05.217Z,9.60
2018-03-29T16:46:33.438Z,10.63
2018-03-29T16:49:00.949Z,10.30
2018-03-29T16:51:28.418Z,9.67
2018-03-29T16:53:57.120Z,12.50
2018-03-29T16:56:24.555Z,12.00
2018-03-29T16:58:53.070Z,8.60
2018-03-29T17:01:20.505Z,12.50
2018-03-29T17:03:47.950Z,8.63
2018-03-29T17:06:16.771Z,9.90
2018-03-29T17:08:44.223Z,10.40
2018-03-29T17:11:12.130Z,8.67
2018-03-29T17:13:39.579Z,10.20
2018-03-29T17:16:07.040Z,9.70
2018-03-29T17:18:34.490Z,8.13
2018-03-29T17:21:02.048Z,35.70
2018-03-29T17:23:29.532Z,52.80
2018-03-29T17:25:57.884Z,56.83
2018-03-29T17:28:25.472Z,14.77
2018-03-29T17:30:53.198Z,13.47
2018-03-29T17:33:20.647Z,9.77
2018-03-29T17:35:48.709Z,8.30
2018-03-29T17:38:16.164Z,7.90
2018-03-29T17:40:43.885Z,10.03
2018-03-29T17:43:12.117Z,12.70
2018-03-29T17:45:40.224Z,11.40
2018-03-29T17:48:08.175Z,9.40
2018-03-29T17:50:37.015Z,7.87
2018-03-29T17:53:04.470Z,12.10
2018-03-29T17:55:32.558Z,9.50
2018-03-29T17:58:00.021Z,9.93
2018-03-29T18:00:27.615Z,9.17
2018-03-29T18:02:55.080Z,12.33
2018-03-29T18:05:23.303Z,9.37
2018-03-29T18:07:50.791Z,10.13
2018-03-29T18:10:18.264Z,11.87
2018-03-29T18:12:46.127Z,14.60
2018-03-29T18:15:13.571Z,15.67
2018-03-29T18:17:41.108Z,11.67
2018-03-29T18:20:08.572Z,11.40
2018-03-29T18:22:36.029Z,11.70
2018-03-29T18:25:03.494Z,13.30
2018-03-29T18:27:31.157Z,16.03
2018-03-29T18:29:58.690Z,22.23
2018-03-29T18:32:26.148Z,16.73
2018-03-29T18:34:54.882Z,14.47
2018-03-29T18:37:22.647Z,12.50
2018-03-29T18:39:50.115Z,13.07
2018-03-29T18:42:18.341Z,14.57
2018-03-29T18:44:46.239Z,15.10
2018-03-29T18:47:13.734Z,16.23
2018-03-29T18:49:41.169Z,13.97
2018-03-29T18:52:09.539Z,94.77
2018-03-29T18:54:36.986Z,48.23
2018-03-29T18:57:04.432Z,19.27
2018-03-29T18:59:31.920Z,16.50
2018-03-29T19:02:00.144Z,18.97
2018-03-29T19:04:27.666Z,16.57
2018-03-29T19:06:55.685Z,17.33
2018-03-29T19:09:23.166Z,12.53
2018-03-29T19:11:50.976Z,16.30
2018-03-29T19:14:18.476Z,15.73
2018-03-29T19:16:45.991Z,15.57
2018-03-29T19:19:13.493Z,14.97
2018-03-29T19:21:40.952Z,16.70
2018-03-29T19:24:08.473Z,17.33
2018-03-29T19:26:35.925Z,15.93
2018-03-29T19:29:03.422Z,17.67
2018-03-29T19:31:30.882Z,19.37
2018-03-29T19:33:58.673Z,17.90
2018-03-29T19:36:27.314Z,19.67
2018-03-29T19:38:54.789Z,17.13
2018-03-29T19:41:22.260Z,17.83
2018-03-29T19:43:51.118Z,17.43
2018-03-29T19:46:18.582Z,19.60
2018-03-29T19:48:46.042Z,20.30
2018-03-29T19:51:13.586Z,21.87
2018-03-29T19:53:41.030Z,19.27
2018-03-29T19:56:08.505Z,21.67
2018-03-29T19:58:35.975Z,21.93
2018-03-29T20:01:04.237Z,23.50
2018-03-29T20:03:31.717Z,24.83
2018-03-29T20:06:00.269Z,25.40
2018-03-29T20:08:27.726Z,18.60
2018-03-29T20:10:55.511Z,17.73
2018-03-29T20:13:23.484Z,18.17
2018-03-29T20:15:51.737Z,20.03
2018-03-29T20:18:19.260Z,24.40
2018-03-29T20:20:46.724Z,22.30
2018-03-29T20:23:14.205Z,19.10
2018-03-29T20:25:42.198Z,18.50
2018-03-29T20:28:09.677Z,21.00
2018-03-29T20:30:37.944Z,23.27
2018-03-29T20:33:06.189Z,23.77
2018-03-29T20:35:33.954Z,20.80
2018-03-29T20:38:01.464Z,26.47
2018-03-29T20:40:28.932Z,21.80
2018-03-29T20:42:56.690Z,20.47
2018-03-29T20:45:24.549Z,21.60
2018-03-29T20:47:52.265Z,24.60
2018-03-29T20:50:19.725Z,22.97
2018-03-29T20:52:47.340Z,26.17
2018-03-29T20:55:15.003Z,28.07
2018-03-29T20:57:42.540Z,25.07
2018-03-29T21:00:09.993Z,30.33
2018-03-29T21:02:38.257Z,32.93
2018-03-29T21:05:06.839Z,27.43
2018-03-29T21:07:35.254Z,29.93
2018-03-29T21:10:02.741Z,23.30
2018-03-29T21:12:30.619Z,27.70
2018-03-29T21:14:58.790Z,24.70
2018-03-29T21:17:26.994Z,25.90
2018-03-29T21:19:55.225Z,23.40
2018-03-29T21:22:22.749Z,28.00
2018-03-29T21:24:50.267Z,26.57
2018-03-29T21:27:17.825Z,25.00
2018-03-29T21:29:45.560Z,27.43
2018-03-29T21:32:13.106Z,26.37
2018-03-29T21:34:41.213Z,26.00
2018-03-29T21:37:09.106Z,27.43
2018-03-29T21:39:37.336Z,23.03
2018-03-29T21:42:04.810Z,24.20
2018-03-29T21:44:32.729Z,27.40
2018-03-29T21:47:00.153Z,29.33
2018-03-29T21:49:28.607Z,26.87
2018-03-29T21:51:56.068Z,23.93
2018-03-29T21:54:23.567Z,22.77
2018-03-29T21:56:51.036Z,25.60
2018-03-29T21:59:18.490Z,21.03
2018-03-29T22:01:46.296Z,25.57
2018-03-29T22:04:14.183Z,23.90
2018-03-29T22:06:42.676Z,26.17
2018-03-29T22:09:10.876Z,25.67
2018-03-29T22:11:38.511Z,25.73
2018-03-29T22:14:07.160Z,21.33
2018-03-29T22:16:34.715Z,24.53
2018-03-29T22:19:02.158Z,22.97
2018-03-29T22:21:29.650Z,25.00
2018-03-29T22:23:57.242Z,26.73
2018-03-29T22:26:24.905Z,29.27
2018-03-29T22:28:52.296Z,24.57
2018-03-29T22:31:19.968Z,22.60
2018-03-29T22:33:47.465Z,22.33
2018-03-29T22:36:15.296Z,29.20
2018-03-29T22:38:42.981Z,25.70
2018-03-29T22:41:10.444Z,25.30
2018-03-29T22:43:38.276Z,20.63
2018-03-29T22:46:05.750Z,26.23
2018-03-29T22:48:33.200Z,25.90
2018-03-29T22:51:00.649Z,25.80
2018-03-29T22:53:28.148Z,32.27
2018-03-29T22:55:55.673Z,29.53
2018-03-29T22:58:23.143Z,30.33
2018-03-29T23:00:51.590Z,28.10
2018-03-29T23:03:19.057Z,30.37
2018-03-29T23:05:46.882Z,30.73
2018-03-29T23:08:14.364Z,31.27
2018-03-29T23:10:42.411Z,36.73
2018-03-29T23:13:09.878Z,28.97
2018-03-29T23:15:37.656Z,27.97
2018-03-29T23:18:05.103Z,27.43
2018-03-29T23:20:32.577Z,27.40
2018-03-29T23:23:00.326Z,26.43
2018-03-29T23:25:27.782Z,32.50
2018-03-29T23:27:55.270Z,26.20
2018-03-29T23:30:22.736Z,28.43
2018-03-29T23:32:50.189Z,25.70
2018-03-29T23:35:18.387Z,26.73
2018-03-29T23:37:45.861Z,25.17
2018-03-29T23:40:13.344Z,28.83
2018-03-29T23:42:40.784Z,28.87
2018-03-29T23:45:08.815Z,27.20
2018-03-29T23:47:37.021Z,28.53
2018-03-29T23:50:04.585Z,26.73
2018-03-29T23:52:32.284Z,29.90
2018-03-29T23:54:59.942Z,31.90
2018-03-29T23:57:27.460Z,27.33
2018-03-29T23:59:54.917Z,29.07
